Rochester, NH (03866)

4:09 PM EDT on September 02, 2014 (GMT -0400)
Rochester Hill | Change Station
CLOSE
Current Station
Personal Weather Station
Location: Rochester, NH
Elevation: 420 ft
Nearby Weather Stations

Elev 420 ft 43.29 °N, 70.95 °W | Updated 14 seconds ago

Rain
Rain Mist
75.1 °F
Feels Like 74 °F
N
0.0
Wind Variable Wind from WSW
Gusts 0.0 mph

Today
High -- | Low -- °F
--% Chance of Precip.
Yesterday
High -- | Low -- °F
Precip. -- in
6:09 AM 7:17 PM
First Quarter, 54% visible
Pressure 29.81 in
Visibility 3.0 miles
Clouds Few 4900 ft
Scattered Clouds 8000 ft
Mostly Cloudy 11000 ft
Heat Index 74 °F
Dew Point 73 °F
Humidity 94%
Rainfall 0.20 in
Snow Depth Not available.
UV 2 out of 12
Pollen 6.00 out of 12
Ozone Good
PM2.5 Moderate
Flu Activity Not available.
METAR KDAW 021951Z AUTO 17003KT 3SM RA BR FEW049 SCT080 BKN110 23/22 A2982 RMK AO2 LTG DSNT E-S TSB03E18 SLP093 P0018 T02330217

More Conditions Fewer Conditions

Pressure 29.81 in
Visibility 3.0 miles
Clouds Few 4900 ft
Scattered Clouds 8000 ft
Mostly Cloudy 11000 ft
Heat Index 74 °F
Dew Point 73 °F
Humidity 94%
Rainfall 0.20 in
Snow Depth Not available.
UV 2 out of 12
Pollen 6.00 out of 12
Ozone Good
PM2.5 Moderate
Flu Activity Not available.
METAR KDAW 021951Z AUTO 17003KT 3SM RA BR FEW049 SCT080 BKN110 23/22 A2982 RMK AO2 LTG DSNT E-S TSB03E18 SLP093 P0018 T02330217

More Conditions Fewer Conditions

10-Day Weather Forecast

Almanac

Astronomy

Sep. 02, 2014 Rise Set
Actual Time 6:09 AM EDT 7:17 PM EDT
Civil Twilight 5:39 AM EDT 7:46 PM EDT
Nautical Twilight 5:04 AM EDT 8:21 PM EDT
Astronomical Twilight 4:27 AM EDT 8:58 PM EDT
Moon 2:02 PM EDT 11:56 PM EDT
Length of Visible Light 14h 06m
Length of Day
13h 08m
Tomorrow will be 2m 51s shorter.
First Quarter, 54% of the Moon is Illuminated
Today
First Quarter
Sep 8
Full
Sep 15
Last Quarter
Sep 24
New
Oct 1
First Quarter

Today's Extremes

State Highs State Lows

Community

WunderPhotos

Upload Photos

1,749,753 photos uploaded!

WunderBlogs® & News

By Dr. Jeff Masters
Director of Meteorology, Weather Underground
By Kari Strenfel
Meteorologist, Weather Underground
By Christopher C. Burt
Weather Historian, Weather Underground
September 2, 2014
September 2, 2014
September 2, 2014

Nearby

Air Quality

  Air Quality AQ Index Pollutant
Yesterday Good
PM2.5
Yesterday Good
OZONE
Current Moderate
PM2.5
Current Good
OZONE
Tuesday Moderate
PM2.5
Tuesday Good
OZONE
Wednesday Good
PM2.5
Wednesday Good
OZONE

Snow Depth

Station Depth Elevation
No new snow has been reported.

Earthquake Activity

City Distance Mag. Time & Date
No recent earthquake activity has been reported nearby.
Minimum magnitude displayed is 2.5.

Coastal Water Temperatures

Place Temperature
Wells, ME 59.0 °F
Portland, ME 57.9 °F

Nearby Weather Stations